This is the latest recevied weather packets stored in our database for station/object JA6CFI-13. If no packets are shown the sender has not sent any weather packets the latest 10 day(s).
| Time | Temp. | Humidity | Pressure | Rain* | Wind** | Luminosity | Snow |
|---|---|---|---|---|---|---|---|
| 1777253604 | 23.33° C | 64% | 1011.8 hPa | 0 mm | - | - | - |
| 1777252826 | 22.78° C | 70% | 1011.8 hPa | 0 mm | - | - | - |
| 1777252045 | 22.22° C | 74% | 1011.8 hPa | 0 mm | - | - | - |
| 1777251264 | 22.22° C | 71% | 1011.8 hPa | 0 mm | - | - | - |
| 1777250484 | 21.67° C | 74% | 1011.7 hPa | 0 mm | - | - | - |
| 1777249704 | 20.56° C | 76% | 1011.6 hPa | 0 mm | - | - | - |
| 1777248925 | 20.56° C | 79% | 1011.5 hPa | 0 mm | - | - | - |
| 1777248145 | 19.44° C | 84% | 1011.4 hPa | 0 mm | - | - | - |
| 1777247364 | 18.89° C | 90% | 1011.4 hPa | 0 mm | - | - | - |
| 1777246585 | 17.22° C | 96% | 1011.4 hPa | 0 mm | - | - | - |
| 1777245806 | 16.67° C | 98% | 1011.4 hPa | 0 mm | - | - | - |
| 1777245025 | 16.11° C | 98% | 1011.3 hPa | 0 mm | - | - | - |
| 1777244245 | 15.56° C | 98% | 1011.2 hPa | 0 mm | - | - | - |
| 1777243465 | 15° C | 98% | 1011 hPa | 0 mm | - | - | - |
| 1777242684 | 14.44° C | 98% | 1011 hPa | 0 mm | - | - | - |
| 1777241906 | 14.44° C | 98% | 1010.9 hPa | 0 mm | - | - | - |
| 1777241125 | 13.89° C | 98% | 1010.9 hPa | 0 mm | - | - | - |
| 1777240344 | 13.33° C | 98% | 1011 hPa | 0 mm | - | - | - |
| 1777239565 | 12.78° C | 98% | 1011.1 hPa | 0 mm | - | - | - |
| 1777238785 | 12.78° C | 98% | 1011 hPa | 0 mm | - | - | - |
| 1777238004 | 12.78° C | 97% | 1011 hPa | 0 mm | - | - | - |
| 1777237226 | 12.78° C | 97% | 1011 hPa | 0 mm | - | - | - |
| 1777236444 | 12.78° C | 97% | 1011 hPa | 0 mm | - | - | - |
| 1777235666 | 12.78° C | 98% | 1010.6 hPa | 0 mm | - | - | - |
| 1777234885 | 12.78° C | 98% | 1010.6 hPa | 0 mm | - | - | - |
* Rain latest hour (hover to see other rain measurements)
** Current wind speed in m/s (hover to see current wind gust speed)